createdAt,value
2018-03-11T11:14:55.505Z,0.00
2018-03-11T11:29:56.455Z,0.00
2018-03-11T11:31:22.369Z,0.00
2018-03-11T11:32:22.680Z,0.00
2018-03-11T11:40:24.692Z,111.00
2018-03-11T11:42:27.466Z,101.00
2018-03-11T11:43:12.517Z,99.00
2018-03-11T11:44:08.848Z,92.00
2018-03-11T11:48:10.255Z,88.00
2018-03-11T11:48:38.943Z,85.00
2018-03-11T11:49:43.863Z,110.00
2018-03-11T11:50:37.246Z,129.00
2018-03-11T11:51:37.174Z,85.00
2018-03-11T11:52:37.042Z,50.00
2018-03-11T11:53:37.058Z,120.00
2018-03-11T11:54:37.070Z,98.00
2018-03-11T11:55:37.074Z,107.00
2018-03-11T11:56:37.082Z,83.00
2018-03-11T11:57:37.094Z,112.00
2018-03-11T11:58:37.094Z,96.00
2018-03-11T11:59:37.103Z,101.00
2018-03-11T12:00:37.116Z,104.00
2018-03-11T12:01:37.118Z,91.00
2018-03-11T12:02:37.126Z,90.00
2018-03-11T12:03:37.132Z,82.00
2018-03-11T12:04:37.138Z,83.00
2018-03-11T12:05:37.145Z,105.00
2018-03-11T12:06:37.050Z,89.00
2018-03-11T12:07:37.121Z,89.00
2018-03-11T12:08:37.030Z,107.00
2018-03-11T12:09:37.069Z,93.00
2018-03-11T12:10:37.041Z,93.00
2018-03-11T12:11:37.085Z,88.00
2018-03-11T12:12:37.093Z,90.00
2018-03-11T12:13:39.718Z,71.00
2018-03-11T12:14:37.109Z,93.00
2018-03-11T12:15:37.226Z,91.00
2018-03-11T12:16:37.134Z,94.00
2018-03-11T12:17:40.141Z,96.00
2018-03-11T12:18:37.146Z,83.00
2018-03-11T12:19:37.155Z,95.00
2018-03-11T12:20:37.158Z,101.00
2018-03-11T12:21:36.922Z,101.00
2018-03-11T12:22:37.103Z,98.00
2018-03-11T12:23:37.082Z,86.00
2018-03-11T12:24:37.076Z,114.00
2018-03-11T12:25:38.929Z,49.00
2018-03-11T12:26:37.102Z,86.00
2018-03-11T12:27:37.103Z,95.00
2018-03-11T12:28:37.104Z,92.00
2018-03-11T12:29:37.126Z,113.00
2018-03-11T12:30:37.150Z,80.00
2018-03-11T12:31:37.090Z,95.00
2018-03-11T12:32:37.037Z,98.00
2018-03-11T12:33:37.143Z,115.00
2018-03-11T12:34:37.149Z,56.00
2018-03-11T12:35:37.162Z,118.00
2018-03-11T12:36:37.069Z,97.00
2018-03-11T12:37:37.317Z,90.00
2018-03-11T12:38:37.348Z,99.00
2018-03-11T12:39:37.089Z,103.00
2018-03-11T12:40:39.807Z,93.00
2018-03-11T12:41:37.098Z,100.00
2018-03-11T12:42:37.114Z,115.00
2018-03-11T12:43:36.977Z,89.00
2018-03-11T12:44:37.018Z,87.00
2018-03-11T12:45:37.150Z,109.00
2018-03-11T12:46:38.367Z,94.00
2018-03-11T12:47:36.708Z,103.00
2018-03-11T12:48:37.045Z,91.00
2018-03-11T12:49:37.157Z,87.00
2018-03-11T12:50:37.061Z,103.00
2018-03-11T12:51:37.069Z,95.00
2018-03-11T12:52:37.054Z,98.00
2018-03-11T12:53:36.987Z,100.00
2018-03-11T12:54:37.049Z,99.00
2018-03-11T12:55:36.993Z,94.00
2018-03-11T12:56:37.110Z,88.00
2018-03-11T12:57:37.011Z,96.00
2018-03-11T12:58:37.080Z,96.00
2018-03-11T12:59:37.012Z,100.00
2018-03-11T13:00:37.093Z,87.00
2018-03-11T13:01:37.109Z,92.00
2018-03-11T13:02:37.109Z,86.00
2018-03-11T13:03:39.372Z,90.00
2018-03-11T13:04:37.120Z,73.00
2018-03-11T13:05:37.151Z,94.00
2018-03-11T13:06:37.079Z,92.00
2018-03-11T13:07:37.082Z,106.00
2018-03-11T13:08:38.159Z,83.00
2018-03-11T13:09:37.272Z,69.00
2018-03-11T13:10:37.807Z,84.00
2018-03-11T13:11:38.106Z,70.00
2018-03-11T13:12:38.033Z,88.00
2018-03-11T13:13:37.843Z,81.00
2018-03-11T13:14:37.168Z,65.00
2018-03-11T13:15:37.667Z,88.00
2018-03-11T13:16:37.606Z,84.00
2018-03-11T13:17:37.374Z,87.00
2018-03-11T13:18:37.715Z,91.00
2018-03-11T13:19:37.170Z,84.00
2018-03-11T13:20:37.176Z,95.00
2018-03-11T13:21:37.458Z,85.00
2018-03-11T13:22:37.351Z,80.00
2018-03-11T13:23:46.756Z,77.00
2018-03-11T13:24:57.490Z,92.00
2018-03-11T13:25:45.408Z,97.00
2018-03-11T13:27:45.492Z,100.00
2018-03-11T13:28:39.861Z,91.00
2018-03-11T13:29:47.880Z,87.00
2018-03-11T13:30:55.269Z,95.00
2018-03-11T13:31:37.497Z,80.00
2018-03-11T13:32:37.163Z,108.00
2018-03-11T13:33:54.454Z,98.00
2018-03-11T13:34:52.085Z,105.00
2018-03-11T13:35:49.052Z,103.00
2018-03-11T13:36:45.871Z,111.00
2018-03-11T13:37:50.313Z,127.00
2018-03-11T13:38:46.328Z,112.00
2018-03-11T13:39:50.448Z,104.00
2018-03-11T13:40:42.156Z,100.00
2018-03-11T13:41:47.127Z,106.00
2018-03-11T13:42:37.132Z,96.00
2018-03-11T13:43:37.145Z,131.00
2018-03-11T13:44:37.148Z,110.00
2018-03-11T13:45:37.158Z,99.00
2018-03-11T13:46:38.190Z,83.00
2018-03-11T13:47:37.173Z,87.00
2018-03-11T13:48:37.181Z,87.00
2018-03-11T13:49:37.189Z,120.00
2018-03-11T13:50:37.196Z,66.00
2018-03-11T13:51:37.374Z,87.00
2018-03-11T13:52:37.109Z,97.00
2018-03-11T13:53:37.070Z,94.00
2018-03-11T13:54:37.246Z,105.00
2018-03-11T13:55:37.143Z,70.00
2018-03-11T13:56:37.141Z,93.00
2018-03-11T13:57:37.138Z,82.00
2018-03-11T13:58:37.148Z,44.00
2018-03-11T13:59:37.187Z,93.00
2018-03-11T14:00:37.167Z,95.00
2018-03-11T14:01:37.164Z,89.00
2018-03-11T14:02:37.206Z,1.00
2018-03-11T14:03:37.181Z,129.00
2018-03-11T14:04:37.192Z,120.00
2018-03-11T14:05:37.201Z,89.00
2018-03-11T14:06:37.204Z,90.00
2018-03-11T14:07:37.110Z,98.00
2018-03-11T14:08:37.316Z,101.00
2018-03-11T14:09:37.128Z,102.00
2018-03-11T14:10:37.193Z,92.00
2018-03-11T14:11:37.143Z,85.00
2018-03-11T14:12:37.458Z,142.00
2018-03-11T14:13:37.252Z,136.00
2018-03-11T14:14:37.159Z,121.00
2018-03-11T14:15:37.173Z,92.00
2018-03-11T14:16:37.278Z,114.00
2018-03-11T14:17:37.146Z,102.00
2018-03-11T14:18:37.195Z,151.00
2018-03-11T14:19:37.174Z,131.00
2018-03-11T14:20:40.274Z,120.00
2018-03-11T14:21:37.219Z,110.00
2018-03-11T14:22:37.123Z,132.00
2018-03-11T14:23:37.098Z,129.00
2018-03-11T14:24:37.130Z,152.00
2018-03-11T14:25:37.143Z,128.00
2018-03-11T14:26:37.150Z,139.00
2018-03-11T14:27:37.149Z,146.00
2018-03-11T14:28:37.167Z,142.00
2018-03-11T14:29:37.207Z,136.00
2018-03-11T14:30:37.173Z,146.00
2018-03-11T14:31:37.189Z,159.00
2018-03-11T14:32:37.190Z,172.00
2018-03-11T14:33:37.193Z,173.00
2018-03-11T14:34:37.210Z,212.00
2018-03-11T14:35:37.208Z,213.00
2018-03-11T14:36:37.187Z,256.00
2018-03-11T14:37:37.185Z,357.00
2018-03-11T14:38:37.113Z,326.00
2018-03-11T14:39:37.134Z,180.00
2018-03-11T14:40:37.145Z,306.00
2018-03-11T14:41:40.023Z,271.00
2018-03-11T14:42:37.263Z,266.00
2018-03-11T14:43:37.161Z,314.00
2018-03-11T14:44:37.177Z,307.00
2018-03-11T14:45:37.542Z,276.00
2018-03-11T14:46:38.315Z,279.00
2018-03-11T14:47:37.202Z,293.00
2018-03-11T14:48:37.202Z,341.00
2018-03-11T14:49:37.206Z,144.00
2018-03-11T14:50:37.222Z,135.00
2018-03-11T14:51:40.398Z,141.00
2018-03-11T14:52:40.107Z,175.00
2018-03-11T14:53:37.133Z,192.00
2018-03-11T14:54:36.997Z,171.00
2018-03-11T14:55:37.008Z,173.00
2018-03-11T14:56:37.158Z,173.00
2018-03-11T14:57:37.171Z,166.00
2018-03-11T14:58:37.174Z,174.00
2018-03-11T14:59:37.181Z,161.00
2018-03-11T15:00:37.190Z,163.00
2018-03-11T15:01:37.188Z,173.00
2018-03-11T15:02:37.249Z,162.00
2018-03-11T15:03:37.213Z,173.00
2018-03-11T15:04:37.219Z,179.00
2018-03-11T15:05:37.226Z,180.00
2018-03-11T15:06:37.195Z,181.00
2018-03-11T15:07:37.207Z,187.00
2018-03-11T15:08:37.245Z,205.00
2018-03-11T15:09:37.150Z,190.00
2018-03-11T15:10:37.629Z,176.00
2018-03-11T15:11:37.576Z,172.00
2018-03-11T15:12:37.179Z,176.00
2018-03-11T15:13:37.190Z,168.00
2018-03-11T15:14:38.493Z,156.00
2018-03-11T15:15:37.197Z,150.00
2018-03-11T15:16:37.310Z,153.00
2018-03-11T15:17:37.114Z,146.00
2018-03-11T15:18:37.263Z,131.00
2018-03-11T15:19:37.237Z,139.00
2018-03-11T15:20:37.230Z,139.00
2018-03-11T15:21:36.745Z,132.00
2018-03-11T15:22:36.750Z,123.00
2018-03-11T15:23:37.158Z,136.00
2018-03-11T15:24:37.155Z,121.00
2018-03-11T15:25:37.161Z,144.00
2018-03-11T15:26:37.173Z,131.00
2018-03-11T15:27:37.181Z,143.00
2018-03-11T15:28:37.187Z,175.00
2018-03-11T15:29:37.198Z,101.00
2018-03-11T15:30:37.202Z,101.00
2018-03-11T15:31:37.207Z,145.00
2018-03-11T15:32:37.217Z,132.00
2018-03-11T15:33:37.223Z,105.00
2018-03-11T15:34:37.231Z,111.00
2018-03-11T15:35:37.203Z,123.00
2018-03-11T15:36:37.243Z,135.00
2018-03-11T15:37:37.244Z,90.00
2018-03-11T15:38:37.154Z,134.00
2018-03-11T15:39:37.170Z,119.00
2018-03-11T15:40:37.170Z,141.00
2018-03-11T15:41:37.178Z,138.00
2018-03-11T15:42:37.194Z,115.00
2018-03-11T15:43:37.190Z,135.00
2018-03-11T15:44:37.199Z,133.00
2018-03-11T15:45:37.210Z,126.00
2018-03-11T15:46:38.345Z,121.00
2018-03-11T15:47:37.218Z,135.00
2018-03-11T15:48:37.189Z,95.00
2018-03-11T15:49:37.254Z,108.00
2018-03-11T15:50:37.242Z,118.00
2018-03-11T15:51:37.258Z,123.00
2018-03-11T15:52:37.217Z,126.00
2018-03-11T15:53:37.137Z,118.00
2018-03-11T15:54:37.164Z,119.00
2018-03-11T15:55:37.182Z,117.00
2018-03-11T15:56:37.150Z,100.00
2018-03-11T15:57:37.190Z,116.00
2018-03-11T15:58:37.206Z,140.00
2018-03-11T15:59:37.206Z,196.00
2018-03-11T16:00:37.214Z,68.00
2018-03-11T16:01:37.224Z,97.00
2018-03-11T16:02:37.226Z,107.00
2018-03-11T16:03:37.233Z,103.00
2018-03-11T16:04:37.249Z,79.00
2018-03-11T16:05:37.252Z,93.00
2018-03-11T16:06:37.255Z,93.00
2018-03-11T16:07:37.265Z,65.00
2018-03-11T16:08:37.303Z,81.00
2018-03-11T16:09:37.174Z,38.00
2018-03-11T16:10:37.181Z,111.00
2018-03-11T16:11:37.199Z,118.00
2018-03-11T16:12:37.198Z,64.00
2018-03-11T16:13:37.206Z,97.00
2018-03-11T16:14:37.218Z,73.00
2018-03-11T16:15:37.219Z,95.00
2018-03-11T16:16:37.229Z,118.00
2018-03-11T16:17:38.677Z,92.00
2018-03-11T16:18:37.250Z,103.00
2018-03-11T16:19:37.245Z,98.00
2018-03-11T16:20:37.266Z,109.00
2018-03-11T16:21:37.262Z,90.00
2018-03-11T16:22:37.269Z,103.00
2018-03-11T16:23:37.287Z,98.00
2018-03-11T16:24:39.724Z,98.00
2018-03-11T16:25:37.191Z,84.00
2018-03-11T16:26:37.199Z,105.00
2018-03-11T16:27:38.233Z,101.00
2018-03-11T16:28:37.314Z,90.00
2018-03-11T16:29:37.327Z,90.00
2018-03-11T16:30:37.233Z,85.00
2018-03-11T16:31:37.234Z,97.00
2018-03-11T16:32:37.205Z,113.00
2018-03-11T16:33:37.250Z,107.00
2018-03-11T16:34:37.258Z,94.00
2018-03-11T16:35:37.264Z,91.00
2018-03-11T16:36:37.278Z,106.00
2018-03-11T16:37:37.276Z,114.00
2018-03-11T16:38:37.392Z,135.00
2018-03-11T16:39:37.190Z,85.00
2018-03-11T16:40:37.202Z,104.00
2018-03-11T16:41:37.106Z,80.00
2018-03-11T16:42:37.234Z,140.00
2018-03-11T16:43:37.222Z,87.00
2018-03-11T16:44:37.236Z,99.00
2018-03-11T16:45:37.238Z,115.00
2018-03-11T16:46:38.474Z,119.00
2018-03-11T16:47:37.254Z,101.00
2018-03-11T16:48:37.261Z,99.00
2018-03-11T16:49:37.269Z,100.00
2018-03-11T16:50:37.264Z,114.00
2018-03-11T16:51:37.278Z,99.00
2018-03-11T16:52:37.246Z,123.00
2018-03-11T16:53:37.217Z,135.00
2018-03-11T16:54:37.301Z,132.00
2018-03-11T16:55:37.201Z,132.00
2018-03-11T16:56:37.222Z,137.00
2018-03-11T16:57:37.213Z,134.00
2018-03-11T16:58:37.224Z,127.00
2018-03-11T16:59:37.246Z,115.00
2018-03-11T17:00:37.237Z,130.00
2018-03-11T17:01:37.246Z,125.00
2018-03-11T17:02:37.259Z,143.00
2018-03-11T17:03:37.258Z,136.00
2018-03-11T17:04:37.266Z,132.00
2018-03-11T17:05:37.281Z,137.00
2018-03-11T17:06:40.246Z,138.00
2018-03-11T17:07:40.905Z,136.00
2018-03-11T17:08:41.503Z,145.00
2018-03-11T17:09:37.611Z,143.00
2018-03-11T17:10:37.210Z,138.00
2018-03-11T17:11:37.293Z,138.00
2018-03-11T17:12:37.186Z,154.00
2018-03-11T17:13:37.233Z,152.00
2018-03-11T17:14:37.237Z,165.00
2018-03-11T17:15:37.249Z,145.00
2018-03-11T17:16:37.253Z,137.00
2018-03-11T17:17:37.258Z,145.00
2018-03-11T17:18:37.274Z,158.00
2018-03-11T17:19:37.275Z,149.00
2018-03-11T17:20:37.282Z,156.00
2018-03-11T17:21:37.294Z,156.00
2018-03-11T17:22:37.298Z,151.00
2018-03-11T17:23:37.302Z,147.00
2018-03-11T17:24:37.325Z,153.00
2018-03-11T17:25:37.223Z,146.00
2018-03-11T17:26:37.221Z,152.00
2018-03-11T17:27:37.225Z,146.00
2018-03-11T17:28:37.243Z,151.00
2018-03-11T17:29:37.242Z,144.00
2018-03-11T17:30:37.249Z,150.00
2018-03-11T17:31:37.266Z,145.00
2018-03-11T17:32:37.269Z,144.00
2018-03-11T17:33:37.235Z,148.00
2018-03-11T17:34:37.297Z,160.00
2018-03-11T17:35:37.191Z,155.00
2018-03-11T17:36:37.294Z,140.00
2018-03-11T17:37:37.311Z,137.00
2018-03-11T17:38:37.170Z,151.00
2018-03-11T17:39:37.319Z,155.00
2018-03-11T17:40:37.330Z,154.00
2018-03-11T17:41:37.101Z,164.00
2018-03-11T17:42:37.237Z,149.00
2018-03-11T17:43:37.259Z,149.00
2018-03-11T17:44:37.209Z,147.00
2018-03-11T17:45:37.223Z,158.00
2018-03-11T17:46:38.393Z,158.00
2018-03-11T17:47:37.277Z,165.00
2018-03-11T17:48:37.281Z,165.00
2018-03-11T17:49:37.294Z,161.00
2018-03-11T17:50:37.298Z,140.00
2018-03-11T17:51:37.266Z,145.00
2018-03-11T17:52:37.205Z,149.00
2018-03-11T17:53:38.628Z,147.00
2018-03-11T17:54:37.293Z,136.00
2018-03-11T17:55:37.325Z,134.00
2018-03-11T17:56:37.278Z,154.00
2018-03-11T17:57:37.250Z,155.00
2018-03-11T17:58:37.250Z,148.00
2018-03-11T17:59:37.256Z,143.00
2018-03-11T18:00:37.226Z,139.00
2018-03-11T18:01:37.133Z,154.00
2018-03-11T18:02:37.278Z,157.00
2018-03-11T18:03:37.291Z,143.00
2018-03-11T18:04:37.296Z,156.00
2018-03-11T18:05:37.305Z,153.00
2018-03-11T18:06:37.413Z,146.00
2018-03-11T18:07:37.177Z,147.00
2018-03-11T18:08:37.326Z,161.00
2018-03-11T18:09:37.338Z,149.00
2018-03-11T18:10:37.338Z,145.00
2018-03-11T18:11:37.236Z,143.00
2018-03-11T18:12:37.314Z,146.00
2018-03-11T18:13:37.267Z,149.00
2018-03-11T18:14:37.262Z,143.00
2018-03-11T18:15:37.228Z,134.00
2018-03-11T18:16:37.243Z,136.00
2018-03-11T18:17:37.249Z,146.00
2018-03-11T18:18:37.294Z,140.00
2018-03-11T18:19:37.262Z,158.00
2018-03-11T18:20:37.282Z,155.00
2018-03-11T18:21:37.182Z,138.00
2018-03-11T18:22:37.216Z,147.00
2018-03-11T18:23:37.234Z,137.00
2018-03-11T18:24:37.335Z,141.00
2018-03-11T18:25:37.351Z,138.00
2018-03-11T18:26:37.233Z,141.00
2018-03-11T18:27:37.253Z,143.00
2018-03-11T18:28:37.262Z,132.00
2018-03-11T18:29:37.273Z,133.00
2018-03-11T18:30:38.653Z,143.00
2018-03-11T18:31:37.281Z,138.00
2018-03-11T18:32:37.294Z,126.00
2018-03-11T18:33:39.553Z,127.00
2018-03-11T18:34:37.307Z,135.00
2018-03-11T18:35:37.317Z,136.00
2018-03-11T18:36:37.321Z,127.00
2018-03-11T18:37:37.364Z,143.00
2018-03-11T18:38:37.306Z,123.00
2018-03-11T18:39:37.312Z,132.00
2018-03-11T18:40:37.309Z,115.00
2018-03-11T18:41:37.256Z,126.00
2018-03-11T18:42:37.250Z,133.00
2018-03-11T18:43:37.245Z,137.00
2018-03-11T18:44:37.241Z,142.00
2018-03-11T18:45:37.242Z,143.00
2018-03-11T18:46:38.518Z,141.00
2018-03-11T18:47:37.299Z,146.00
2018-03-11T18:48:37.310Z,155.00
2018-03-11T18:49:39.331Z,149.00
2018-03-11T18:50:37.318Z,157.00
2018-03-11T18:51:37.339Z,153.00
2018-03-11T18:52:37.334Z,159.00
2018-03-11T18:53:37.348Z,151.00
2018-03-11T18:54:37.721Z,168.00
2018-03-11T18:55:37.458Z,162.00
2018-03-11T18:56:37.258Z,155.00
2018-03-11T18:57:37.429Z,159.00
2018-03-11T18:58:37.282Z,157.00
2018-03-11T18:59:37.282Z,149.00
2018-03-11T19:00:37.289Z,157.00
2018-03-11T19:01:37.302Z,163.00
2018-03-11T19:02:37.306Z,178.00
2018-03-11T19:03:37.358Z,173.00
2018-03-11T19:04:37.327Z,149.00
2018-03-11T19:05:38.562Z,154.00
2018-03-11T19:06:37.302Z,161.00
2018-03-11T19:07:37.346Z,176.00
2018-03-11T19:08:38.136Z,173.00
2018-03-11T19:09:37.354Z,173.00
2018-03-11T19:10:37.371Z,164.00
2018-03-11T19:11:37.269Z,172.00
2018-03-11T19:12:37.274Z,179.00
2018-03-11T19:13:37.283Z,179.00
2018-03-11T19:14:37.294Z,174.00
2018-03-11T19:15:37.294Z,176.00
2018-03-11T19:16:37.437Z,179.00
2018-03-11T19:17:37.475Z,174.00
2018-03-11T19:18:51.202Z,177.00
2018-03-11T19:19:48.866Z,175.00
2018-03-11T19:20:51.829Z,174.00
2018-03-11T19:21:46.018Z,175.00
2018-03-11T19:22:44.064Z,174.00
2018-03-11T19:23:37.362Z,171.00
2018-03-11T19:24:37.361Z,178.00
2018-03-11T19:25:37.266Z,177.00
2018-03-11T19:26:37.273Z,175.00
2018-03-11T19:27:37.285Z,180.00
2018-03-11T19:28:37.298Z,183.00
2018-03-11T19:29:37.295Z,176.00
2018-03-11T19:30:39.231Z,173.00
2018-03-11T19:31:37.329Z,176.00
2018-03-11T19:32:37.335Z,173.00
2018-03-11T19:33:37.334Z,176.00
2018-03-11T19:34:37.334Z,175.00
2018-03-11T19:35:37.347Z,183.00
2018-03-11T19:36:37.358Z,175.00
2018-03-11T19:37:37.329Z,179.00
2018-03-11T19:38:37.322Z,175.00
2018-03-11T19:39:37.272Z,178.00
2018-03-11T19:40:37.382Z,176.00
2018-03-11T19:41:37.287Z,181.00
2018-03-11T19:42:37.299Z,178.00
2018-03-11T19:43:37.259Z,180.00
2018-03-11T19:44:37.273Z,174.00
2018-03-11T19:45:37.320Z,175.00
2018-03-11T19:46:38.442Z,181.00
2018-03-11T19:47:37.291Z,180.00
2018-03-11T19:48:37.325Z,179.00
2018-03-11T19:49:37.239Z,175.00
2018-03-11T19:50:37.445Z,181.00
2018-03-11T19:51:37.468Z,177.00
2018-03-11T19:52:37.367Z,171.00
2018-03-11T19:53:37.367Z,179.00
2018-03-11T19:54:37.389Z,184.00
2018-03-11T19:55:37.397Z,182.00
2018-03-11T19:56:37.353Z,168.00
2018-03-11T19:57:37.296Z,181.00
2018-03-11T19:58:37.303Z,177.00
2018-03-11T19:59:37.314Z,179.00
2018-03-11T20:00:37.345Z,195.00
2018-03-11T20:01:37.326Z,175.00
2018-03-11T20:02:37.339Z,185.00
2018-03-11T20:03:37.341Z,176.00
2018-03-11T20:04:37.346Z,185.00
2018-03-11T20:05:37.373Z,181.00
2018-03-11T20:06:37.358Z,174.00
2018-03-11T20:07:37.368Z,182.00
2018-03-11T20:08:37.377Z,178.00
2018-03-11T20:09:37.383Z,178.00
2018-03-11T20:10:37.284Z,186.00
2018-03-11T20:11:37.294Z,186.00
2018-03-11T20:12:37.399Z,195.00
2018-03-11T20:13:37.364Z,190.00
2018-03-11T20:14:37.314Z,181.00
2018-03-11T20:15:37.314Z,180.00
2018-03-11T20:16:37.330Z,185.00
2018-03-11T20:17:37.342Z,195.00
2018-03-11T20:18:37.355Z,194.00
2018-03-11T20:19:37.350Z,184.00
2018-03-11T20:20:37.323Z,182.00
2018-03-11T20:21:37.370Z,179.00
2018-03-11T20:22:37.370Z,188.00
2018-03-11T20:23:37.351Z,177.00
2018-03-11T20:24:40.003Z,188.00
2018-03-11T20:25:37.397Z,183.00
2018-03-11T20:26:37.373Z,181.00
2018-03-11T20:27:37.272Z,185.00
2018-03-11T20:28:37.283Z,186.00
2018-03-11T20:29:37.318Z,187.00
2018-03-11T20:30:37.325Z,182.00
2018-03-11T20:31:37.317Z,183.00
2018-03-11T20:32:38.262Z,198.00
2018-03-11T20:33:37.358Z,194.00
2018-03-11T20:34:37.366Z,187.00
2018-03-11T20:35:37.367Z,206.00
2018-03-11T20:36:37.374Z,193.00
2018-03-11T20:37:37.381Z,192.00
2018-03-11T20:38:37.372Z,182.00
2018-03-11T20:39:37.391Z,183.00
2018-03-11T20:40:37.405Z,182.00
2018-03-11T20:41:37.406Z,183.00
2018-03-11T20:42:37.414Z,174.00
2018-03-11T20:43:37.318Z,192.00
2018-03-11T20:44:37.335Z,200.00
2018-03-11T20:45:37.392Z,186.00
2018-03-11T20:46:38.678Z,187.00
2018-03-11T20:47:37.355Z,192.00
2018-03-11T20:48:37.358Z,195.00
2018-03-11T20:49:37.361Z,221.00
2018-03-11T20:50:37.466Z,232.00
2018-03-11T20:51:37.346Z,195.00
2018-03-11T20:52:37.386Z,196.00
2018-03-11T20:53:37.398Z,197.00
2018-03-11T20:54:37.398Z,219.00
2018-03-11T20:55:37.409Z,229.00
2018-03-11T20:56:37.422Z,218.00
2018-03-11T20:57:37.425Z,203.00
2018-03-11T20:58:37.454Z,201.00
2018-03-11T20:59:37.338Z,265.00
2018-03-11T21:00:37.355Z,192.00
2018-03-11T21:01:37.361Z,275.00
2018-03-11T21:02:37.362Z,250.00
2018-03-11T21:03:37.868Z,227.00
2018-03-11T21:04:37.587Z,243.00
2018-03-11T21:05:37.382Z,216.00
2018-03-11T21:06:37.590Z,255.00
2018-03-11T21:07:37.497Z,239.00
2018-03-11T21:08:37.398Z,235.00
2018-03-11T21:09:37.419Z,265.00
2018-03-11T21:10:37.414Z,249.00
2018-03-11T21:11:37.494Z,297.00
2018-03-11T21:12:39.994Z,278.00
2018-03-11T21:13:39.361Z,266.00
2018-03-11T21:14:37.313Z,268.00
2018-03-11T21:15:37.344Z,290.00
2018-03-11T21:16:37.357Z,296.00
2018-03-11T21:17:37.361Z,311.00
2018-03-11T21:18:37.370Z,334.00
2018-03-11T21:19:37.382Z,228.00
2018-03-11T21:20:37.382Z,308.00
2018-03-11T21:21:37.391Z,330.00
2018-03-11T21:22:37.401Z,304.00
2018-03-11T21:23:37.406Z,293.00
2018-03-11T21:24:37.406Z,267.00
2018-03-11T21:25:37.425Z,327.00
2018-03-11T21:26:37.425Z,290.00
2018-03-11T21:27:37.464Z,324.00
2018-03-11T21:28:37.337Z,276.00
2018-03-11T21:29:37.314Z,308.00
2018-03-11T21:30:37.452Z,289.00
2018-03-11T21:31:37.362Z,304.00
2018-03-11T21:32:37.377Z,327.00
2018-03-11T21:33:37.382Z,319.00
2018-03-11T21:34:37.380Z,298.00
2018-03-11T21:35:37.285Z,326.00
2018-03-11T21:36:37.302Z,315.00
2018-03-11T21:37:37.301Z,292.00
2018-03-11T21:38:37.309Z,336.00
2018-03-11T21:39:37.321Z,302.00
2018-03-11T21:40:37.327Z,284.00
2018-03-11T21:41:37.332Z,327.00
2018-03-11T21:42:37.347Z,268.00
2018-03-11T21:43:37.345Z,315.00
2018-03-11T21:44:37.354Z,294.00
2018-03-11T21:45:37.365Z,322.00
2018-03-11T21:46:38.401Z,337.00
2018-03-11T21:47:37.333Z,326.00
2018-03-11T21:48:37.389Z,290.00
2018-03-11T21:49:37.643Z,310.00
2018-03-11T21:50:37.394Z,203.00
2018-03-11T21:51:37.410Z,213.00
2018-03-11T21:52:37.412Z,193.00
2018-03-11T21:53:37.419Z,225.00
2018-03-11T21:54:37.435Z,201.00
2018-03-11T21:55:37.339Z,269.00
2018-03-11T21:56:37.337Z,226.00
2018-03-11T21:57:37.241Z,207.00
2018-03-11T21:58:37.358Z,297.00
2018-03-11T21:59:37.358Z,306.00
2018-03-11T22:00:37.372Z,319.00
2018-03-11T22:01:37.379Z,326.00
2018-03-11T22:02:37.382Z,329.00
2018-03-11T22:03:37.386Z,315.00
2018-03-11T22:04:37.402Z,293.00
2018-03-11T22:05:37.302Z,321.00
2018-03-11T22:06:36.954Z,295.00
2018-03-11T22:07:37.314Z,326.00
2018-03-11T22:08:37.331Z,299.00
2018-03-11T22:09:37.329Z,312.00
2018-03-11T22:10:37.338Z,325.00
2018-03-11T22:11:37.351Z,333.00
2018-03-11T22:12:37.358Z,327.00
2018-03-11T22:13:37.267Z,313.00
2018-03-11T22:14:37.266Z,305.00
2018-03-11T22:15:37.169Z,249.00
2018-03-11T22:16:36.982Z,288.00
2018-03-11T22:17:37.287Z,305.00
2018-03-11T22:18:37.193Z,333.00
2018-03-11T22:19:37.410Z,287.00
2018-03-11T22:20:37.282Z,241.00
2018-03-11T22:21:37.409Z,276.00
2018-03-11T22:22:37.377Z,330.00
2018-03-11T22:23:37.437Z,279.00
2018-03-11T22:24:37.234Z,324.00
2018-03-11T22:25:37.450Z,345.00
2018-03-11T22:26:37.462Z,336.00
2018-03-11T22:27:37.461Z,319.00
2018-03-11T22:28:37.368Z,309.00
2018-03-11T22:29:37.188Z,324.00
2018-03-11T22:30:37.386Z,308.00
2018-03-11T22:31:37.391Z,336.00
2018-03-11T22:32:37.399Z,329.00
2018-03-11T22:33:40.289Z,313.00
2018-03-11T22:34:37.433Z,326.00
2018-03-11T22:35:37.423Z,306.00
2018-03-11T22:36:37.430Z,305.00
2018-03-11T22:37:37.438Z,309.00
2018-03-11T22:38:37.305Z,319.00
2018-03-11T22:39:37.345Z,311.00
2018-03-11T22:40:37.359Z,318.00
2018-03-11T22:41:37.358Z,306.00
2018-03-11T22:42:37.366Z,321.00
2018-03-11T22:43:37.333Z,326.00
2018-03-11T22:44:37.377Z,316.00
2018-03-11T22:45:37.386Z,319.00
2018-03-11T22:46:38.430Z,327.00
2018-03-11T22:47:37.370Z,317.00
2018-03-11T22:48:37.405Z,320.00
2018-03-11T22:49:37.379Z,332.00
2018-03-11T22:50:37.400Z,298.00
2018-03-11T22:51:37.431Z,330.00
2018-03-11T22:52:37.442Z,328.00
2018-03-11T22:53:37.448Z,309.00
2018-03-11T22:54:37.450Z,325.00
2018-03-11T22:55:37.466Z,295.00
2018-03-11T22:56:37.471Z,296.00
2018-03-11T22:57:37.583Z,325.00
2018-03-11T22:58:37.277Z,289.00
2018-03-11T22:59:37.259Z,335.00
2018-03-11T23:02:14.161Z,324.00
2018-03-11T23:03:14.165Z,326.00
2018-03-11T23:04:14.145Z,325.00
2018-03-11T23:05:16.946Z,323.00
2018-03-11T23:06:14.189Z,319.00
2018-03-11T23:07:14.201Z,308.00
2018-03-11T23:08:14.113Z,332.00
2018-03-11T23:09:14.214Z,299.00
2018-03-11T23:10:14.223Z,333.00
2018-03-11T23:11:14.231Z,303.00
2018-03-11T23:12:14.234Z,339.00
2018-03-11T23:13:14.247Z,341.00
2018-03-11T23:14:14.153Z,323.00
2018-03-11T23:15:14.253Z,337.00
2018-03-11T23:16:14.230Z,338.00
2018-03-11T23:17:14.204Z,329.00
2018-03-11T23:18:14.174Z,341.00
2018-03-11T23:19:14.187Z,290.00
2018-03-11T23:20:14.196Z,341.00
2018-03-11T23:21:14.166Z,290.00
2018-03-11T23:22:14.170Z,330.00
2018-03-11T23:23:14.217Z,336.00
2018-03-11T23:24:14.218Z,339.00
2018-03-11T23:25:14.226Z,334.00
2018-03-11T23:26:14.448Z,315.00
2018-03-11T23:27:14.205Z,323.00
2018-03-11T23:28:14.226Z,346.00
2018-03-11T23:29:14.261Z,346.00
2018-03-11T23:30:14.261Z,328.00
2018-03-11T23:31:14.421Z,337.00
2018-03-11T23:32:14.179Z,282.00
2018-03-11T23:33:14.193Z,329.00
2018-03-11T23:34:14.191Z,327.00
2018-03-11T23:35:14.199Z,325.00
2018-03-11T23:36:14.215Z,342.00
2018-03-11T23:37:14.211Z,340.00
2018-03-11T23:38:14.120Z,326.00
2018-03-11T23:39:14.231Z,325.00
2018-03-11T23:40:14.235Z,347.00
2018-03-11T23:41:14.238Z,339.00
2018-03-11T23:42:14.147Z,339.00
2018-03-11T23:43:14.254Z,342.00
2018-03-11T23:44:14.369Z,308.00
2018-03-11T23:45:14.273Z,337.00
2018-03-11T23:46:14.279Z,333.00
2018-03-11T23:47:14.182Z,339.00
2018-03-11T23:48:14.188Z,307.00
2018-03-11T23:49:14.299Z,293.00
2018-03-11T23:50:14.202Z,315.00
2018-03-11T23:51:14.209Z,328.00
2018-03-11T23:52:14.221Z,338.00
2018-03-11T23:53:15.586Z,340.00
2018-03-11T23:54:14.342Z,328.00
2018-03-11T23:55:14.250Z,351.00
2018-03-11T23:56:14.250Z,293.00
2018-03-11T23:57:16.631Z,340.00
2018-03-11T23:58:14.274Z,307.00
2018-03-11T23:59:15.539Z,338.00
